Time;durP1;ratioP1;P1;durP2;ratioP2;P2;SDS_P1;SDS_P2;PMS_P1;PMS_P2;Temp;Humidity;BMP_temperature;BMP_pressure;BME280_temperature;BME280_humidity;BME280_pressure;Samples;Min_cycle;Max_cycle;Signal;HPM_P1;HPM_P2
2020/12/02 00:00:17;;;;;;;19.20;11.30;;;9.60;99.90;;;;;;5056585;28;20171;-86
2020/12/02 00:03:05;;;;;;;21.17;11.68;;;9.60;99.90;;;;;;5056498;28;20189;-87
2020/12/02 00:05:32;;;;;;;16.70;11.27;;;9.70;99.90;;;;;;5056251;28;20232;-87
2020/12/02 00:08:38;;;;;;;23.85;11.68;;;9.50;99.90;;;;;;5074729;28;20509;-86
2020/12/02 00:11:08;;;;;;;19.00;12.15;;;9.30;99.90;;;;;;5076903;28;20166;-86
2020/12/02 00:13:38;;;;;;;19.13;11.20;;;9.50;99.90;;;;;;5092788;28;20187;-88
2020/12/02 00:16:08;;;;;;;19.38;11.88;;;9.50;99.90;;;;;;5063369;28;20245;-86
2020/12/02 00:18:37;;;;;;;17.73;11.85;;;9.80;99.90;;;;;;5026399;28;20195;-87
2020/12/02 00:21:07;;;;;;;22.15;12.70;;;9.80;99.90;;;;;;5019988;28;20262;-86
2020/12/02 00:23:34;;;;;;;18.52;12.90;;;9.90;99.90;;;;;;5037095;28;20191;-86
2020/12/02 00:25:59;;;;;;;17.08;13.00;;;10.00;99.90;;;;;;5019330;28;20179;-86
2020/12/02 00:28:26;;;;;;;19.48;13.57;;;10.20;99.90;;;;;;5045206;28;20190;-87
2020/12/02 00:30:52;;;;;;;17.05;11.90;;;10.30;99.90;;;;;;5092301;28;20179;-87
2020/12/02 00:33:24;;;;;;;23.90;13.27;;;10.20;99.90;;;;;;5085817;28;20194;-87
2020/12/02 00:35:51;;;;;;;14.70;12.63;;;10.40;99.90;;;;;;5068022;28;20581;-86
2020/12/02 00:38:18;;;;;;;18.42;12.35;;;10.10;99.90;;;;;;5064601;28;20163;-87
2020/12/02 00:40:44;;;;;;;22.30;13.55;;;9.80;99.90;;;;;;5055975;28;20166;-86
2020/12/02 00:43:14;;;;;;;21.08;13.73;;;9.70;99.90;;;;;;5058983;28;20907;-86
2020/12/02 00:45:40;;;;;;;26.08;13.68;;;9.90;99.90;;;;;;5074666;28;20162;-87
2020/12/02 00:48:12;;;;;;;14.45;12.55;;;10.10;99.90;;;;;;5058917;28;20171;-87
2020/12/02 00:50:38;;;;;;;18.67;12.65;;;10.20;99.90;;;;;;5058638;28;20244;-86
2020/12/02 00:53:11;;;;;;;20.98;13.70;;;10.10;99.90;;;;;;5060167;28;20688;-87
2020/12/02 00:55:37;;;;;;;22.30;13.88;;;10.10;99.90;;;;;;5038574;28;20199;-87
2020/12/02 00:58:08;;;;;;;21.85;14.38;;;10.30;99.90;;;;;;5044532;28;20562;-87
2020/12/02 01:00:39;;;;;;;18.88;14.45;;;10.30;99.90;;;;;;5064090;28;20167;-87
2020/12/02 01:03:26;;;;;;;22.92;14.43;;;10.30;99.90;;;;;;5076472;28;20178;-86
2020/12/02 01:05:54;;;;;;;22.50;13.50;;;10.20;99.90;;;;;;5058538;28;20171;-86
2020/12/02 01:08:36;;;;;;;16.33;14.05;;;10.10;99.90;;;;;;5058493;28;20625;-87
2020/12/02 01:11:22;;;;;;;27.33;13.60;;;10.00;99.90;;;;;;5058280;28;20224;-88
2020/12/02 01:13:54;;;;;;;23.08;14.43;;;10.20;99.90;;;;;;5064473;28;20187;-87
2020/12/02 01:16:28;;;;;;;17.80;14.43;;;9.90;99.90;;;;;;5038535;28;20588;-87
2020/12/02 01:18:55;;;;;;;18.55;13.77;;;10.00;99.90;;;;;;5038301;28;20524;-87
2020/12/02 01:21:50;;;;;;;22.02;14.13;;;10.00;99.90;;;;;;5070943;28;20166;-87
2020/12/02 01:24:21;;;;;;;18.85;13.98;;;10.00;99.90;;;;;;5060515;28;20178;-86
2020/12/02 01:27:22;;;;;;;19.88;14.18;;;9.70;99.90;;;;;;5078298;28;20258;-86
2020/12/02 01:29:50;;;;;;;18.38;14.73;;;9.90;99.90;;;;;;5008907;28;20556;-87
2020/12/02 01:32:16;;;;;;;22.35;15.30;;;9.90;99.90;;;;;;5021552;28;20199;-86
2020/12/02 01:34:47;;;;;;;19.00;14.90;;;10.00;99.90;;;;;;5064850;28;20178;-87
2020/12/02 01:37:32;;;;;;;15.55;13.50;;;9.80;99.90;;;;;;5050021;28;20199;-87
2020/12/02 01:40:16;;;;;;;17.75;13.88;;;9.70;99.90;;;;;;5053767;28;20170;-86
2020/12/02 01:42:45;;;;;;;25.77;14.70;;;9.70;99.90;;;;;;5057980;28;20167;-87
2020/12/02 01:45:27;;;;;;;19.73;15.02;;;9.80;99.90;;;;;;5058780;28;20315;-86
2020/12/02 01:48:07;;;;;;;20.75;15.18;;;9.70;99.90;;;;;;5075499;28;20174;-87
2020/12/02 01:50:39;;;;;;;23.30;14.18;;;9.40;99.90;;;;;;5077805;28;20169;-87
2020/12/02 01:53:27;;;;;;;22.83;14.90;;;9.30;99.90;;;;;;5057624;28;20555;-87
2020/12/02 01:55:57;;;;;;;28.42;15.45;;;9.30;99.90;;;;;;5056991;28;20183;-87
2020/12/02 01:58:38;;;;;;;19.10;14.35;;;9.50;99.90;;;;;;5059036;28;20250;-87
2020/12/02 02:01:15;;;;;;;22.27;14.60;;;9.40;99.90;;;;;;5068588;28;20175;-86
2020/12/02 02:03:41;;;;;;;18.45;14.35;;;9.30;99.90;;;;;;5063363;28;20182;-86
2020/12/02 02:06:21;;;;;;;26.58;15.43;;;9.20;99.90;;;;;;5052525;28;20174;-86
2020/12/02 02:08:47;;;;;;;21.08;14.77;;;9.40;99.90;;;;;;5085040;28;20181;-87
2020/12/02 02:11:22;;;;;;;19.85;14.10;;;9.60;99.90;;;;;;5062436;28;20614;-87
2020/12/02 02:13:56;;;;;;;26.38;15.70;;;9.60;99.90;;;;;;5060099;28;20550;-87
2020/12/02 02:16:43;;;;;;;18.67;14.15;;;9.80;99.90;;;;;;5057424;28;20623;-87
2020/12/02 02:19:19;;;;;;;21.50;14.85;;;9.60;99.90;;;;;;5075658;28;20509;-87
2020/12/02 02:21:47;;;;;;;24.25;14.77;;;9.50;99.90;;;;;;5075232;28;20188;-87
2020/12/02 02:24:12;;;;;;;22.90;14.65;;;9.70;99.90;;;;;;5057384;28;20176;-87
2020/12/02 02:26:41;;;;;;;23.02;14.95;;;9.60;99.90;;;;;;5040562;28;20181;-86
2020/12/02 02:29:23;;;;;;;20.48;14.40;;;9.60;99.90;;;;;;5040404;28;20523;-87
2020/12/02 02:31:58;;;;;;;27.77;15.48;;;9.80;99.90;;;;;;5057063;28;20500;-87
2020/12/02 02:34:24;;;;;;;23.63;15.50;;;10.10;99.90;;;;;;5065563;28;20154;-90
2020/12/02 02:36:52;;;;;;;16.42;14.65;;;10.20;99.90;;;;;;5079609;28;20189;-88
2020/12/02 02:39:18;;;;;;;24.08;15.30;;;9.80;99.90;;;;;;5081521;28;20160;-87
2020/12/02 02:41:44;;;;;;;17.67;14.77;;;9.30;99.90;;;;;;5064862;28;20174;-86
2020/12/02 02:44:11;;;;;;;19.50;15.15;;;9.10;99.90;;;;;;5075325;28;20208;-87
2020/12/02 02:46:38;;;;;;;25.48;15.88;;;9.10;99.90;;;;;;5040621;28;20182;-87
2020/12/02 02:49:06;;;;;;;20.83;14.38;;;9.30;99.90;;;;;;5057304;28;20206;-86
2020/12/02 02:51:33;;;;;;;16.50;14.50;;;9.20;99.90;;;;;;5057911;28;20168;-89
2020/12/02 02:53:59;;;;;;;26.83;14.95;;;9.10;99.90;;;;;;5043911;28;20196;-88
2020/12/02 02:56:25;;;;;;;20.75;15.25;;;9.30;99.90;;;;;;5052438;28;20644;-87
2020/12/02 02:58:50;;;;;;;20.45;14.48;;;9.10;99.90;;;;;;5023389;28;20174;-87
2020/12/02 03:01:16;;;;;;;15.85;13.45;;;9.10;99.90;;;;;;5056582;28;20269;-87
2020/12/02 03:03:42;;;;;;;26.13;14.70;;;9.10;99.90;;;;;;5040553;28;20236;-86
2020/12/02 03:06:08;;;;;;;19.45;14.73;;;9.20;99.90;;;;;;5023664;28;20258;-87
2020/12/02 03:08:35;;;;;;;19.88;14.15;;;9.20;99.90;;;;;;5056887;28;20179;-86
2020/12/02 03:11:04;;;;;;;16.38;13.88;;;9.20;99.90;;;;;;5056403;28;20175;-88
2020/12/02 03:13:43;;;;;;;19.05;13.90;;;9.20;99.90;;;;;;5067952;28;20252;-87
2020/12/02 03:16:29;;;;;;;22.00;15.27;;;9.40;99.90;;;;;;5076439;28;20205;-87
2020/12/02 03:18:59;;;;;;;20.48;15.00;;;9.60;99.90;;;;;;5075551;28;20178;-87
2020/12/02 03:21:25;;;;;;;19.63;14.35;;;9.50;99.90;;;;;;5094190;28;20337;-87
2020/12/02 03:23:52;;;;;;;21.60;14.40;;;9.50;99.90;;;;;;5076055;28;20185;-87
2020/12/02 03:26:19;;;;;;;19.17;14.13;;;9.60;99.90;;;;;;5028842;28;20328;-87
2020/12/02 03:28:45;;;;;;;22.17;14.75;;;9.80;99.90;;;;;;5036557;28;20192;-86
2020/12/02 03:31:14;;;;;;;22.65;15.38;;;10.00;99.90;;;;;;5036490;28;20617;-87
2020/12/02 03:33:40;;;;;;;20.58;14.60;;;10.10;99.90;;;;;;5036217;28;20195;-87
2020/12/02 03:36:06;;;;;;;16.83;13.93;;;10.20;99.90;;;;;;5053842;28;20255;-87
2020/12/02 03:38:33;;;;;;;19.58;15.48;;;9.80;99.90;;;;;;5039758;28;20181;-87
2020/12/02 03:40:59;;;;;;;17.92;13.98;;;9.80;99.90;;;;;;5026327;28;20198;-87
2020/12/02 03:43:24;;;;;;;25.80;14.80;;;9.90;99.90;;;;;;5036527;28;20542;-88
2020/12/02 03:45:50;;;;;;;19.40;14.77;;;10.00;99.90;;;;;;5019371;28;20178;-88
2020/12/02 03:48:18;;;;;;;25.95;14.57;;;10.10;99.90;;;;;;5036279;28;20172;-87
2020/12/02 03:50:45;;;;;;;18.80;15.07;;;10.20;99.90;;;;;;5039961;28;20175;-87
2020/12/02 03:53:13;;;;;;;20.85;14.23;;;10.40;99.90;;;;;;5075680;28;20600;-87
2020/12/02 03:55:38;;;;;;;25.50;15.15;;;10.50;99.90;;;;;;5075973;28;20178;-87
2020/12/02 03:58:05;;;;;;;22.35;14.85;;;10.60;99.90;;;;;;5068626;28;20188;-87
2020/12/02 04:00:31;;;;;;;20.52;15.85;;;10.70;99.90;;;;;;5042404;28;20216;-87
2020/12/02 04:02:57;;;;;;;21.63;14.82;;;10.70;99.90;;;;;;5078417;28;20638;-87
2020/12/02 04:05:23;;;;;;;26.02;16.80;;;10.70;99.90;;;;;;5075826;28;20162;-87
2020/12/02 04:07:49;;;;;;;23.05;16.48;;;10.70;99.90;;;;;;5059519;28;20189;-86
2020/12/02 04:10:15;;;;;;;21.55;15.57;;;10.60;99.90;;;;;;5078601;28;20175;-86
2020/12/02 04:12:42;;;;;;;22.33;15.68;;;10.70;99.90;;;;;;5059610;28;20587;-86
2020/12/02 04:15:08;;;;;;;21.55;15.38;;;10.70;99.90;;;;;;5074547;28;20261;-87
2020/12/02 04:17:34;;;;;;;21.15;15.45;;;10.80;99.90;;;;;;5079614;28;20182;-87
2020/12/02 04:20:00;;;;;;;21.85;15.00;;;10.80;99.90;;;;;;5091271;28;20166;-86
2020/12/02 04:22:26;;;;;;;25.98;16.27;;;10.90;99.90;;;;;;5077137;28;20175;-88
2020/12/02 04:24:52;;;;;;;22.00;16.20;;;10.90;99.90;;;;;;5059564;28;20569;-86
2020/12/02 04:27:18;;;;;;;22.27;15.48;;;10.80;99.90;;;;;;5058003;28;20257;-87
2020/12/02 04:29:44;;;;;;;27.92;16.25;;;10.70;99.90;;;;;;5079306;28;20174;-87
2020/12/02 04:32:10;;;;;;;22.48;15.27;;;10.60;99.90;;;;;;5079073;28;20513;-87
2020/12/02 04:34:36;;;;;;;21.58;16.00;;;10.60;99.90;;;;;;5079296;28;20650;-87
2020/12/02 04:37:04;;;;;;;20.55;14.98;;;10.50;99.90;;;;;;5079416;28;20201;-87
2020/12/02 04:39:30;;;;;;;23.23;16.33;;;10.60;99.90;;;;;;5097376;28;20211;-86
2020/12/02 04:41:56;;;;;;;17.27;15.45;;;10.50;99.90;;;;;;5079168;28;20166;-86
2020/12/02 04:44:22;;;;;;;32.22;15.70;;;10.40;99.90;;;;;;5064614;28;20680;-86
2020/12/02 04:46:53;;;;;;;19.95;15.75;;;10.40;99.90;;;;;;5051386;28;20263;-86
2020/12/02 04:49:23;;;;;;;21.52;15.10;;;10.30;99.90;;;;;;5039225;28;20156;-86
2020/12/02 04:51:54;;;;;;;27.80;14.82;;;10.40;99.90;;;;;;5056515;28;20253;-87
2020/12/02 04:54:20;;;;;;;23.23;14.85;;;10.20;99.90;;;;;;5022914;28;20208;-86
2020/12/02 04:56:48;;;;;;;17.63;14.95;;;10.10;99.90;;;;;;5063947;28;20193;-87
2020/12/02 04:59:14;;;;;;;20.38;15.38;;;10.10;99.90;;;;;;5062916;28;20159;-86
2020/12/02 05:01:54;;;;;;;20.98;15.00;;;10.00;99.90;;;;;;5052605;28;20172;-87
2020/12/02 05:04:28;;;;;;;19.02;15.30;;;9.80;99.90;;;;;;5041914;28;20180;-86
2020/12/02 05:07:17;;;;;;;17.73;14.75;;;9.70;99.90;;;;;;5038744;28;20194;-86
2020/12/02 05:09:57;;;;;;;16.40;14.57;;;9.30;99.90;;;;;;5038667;28;20175;-86
2020/12/02 05:12:27;;;;;;;18.02;15.43;;;9.10;99.90;;;;;;5056661;28;20245;-86
2020/12/02 05:15:05;;;;;;;18.73;14.75;;;9.20;99.90;;;;;;5077206;28;20253;-90
2020/12/02 05:17:30;;;;;;;18.40;14.52;;;9.10;99.90;;;;;;5063450;28;20238;-87
2020/12/02 05:20:16;;;;;;;23.02;15.07;;;8.80;99.90;;;;;;5025628;28;20226;-87
2020/12/02 05:22:45;;;;;;;26.83;16.05;;;9.00;99.90;;;;;;5055273;28;20181;-87
2020/12/02 05:25:32;;;;;;;18.92;15.63;;;9.30;99.90;;;;;;5053485;28;20192;-86
2020/12/02 05:28:12;;;;;;;22.42;15.98;;;9.60;99.90;;;;;;5038589;28;20605;-87
2020/12/02 05:30:38;;;;;;;22.88;16.05;;;9.70;99.90;;;;;;5074416;28;20165;-87
2020/12/02 05:33:13;;;;;;;21.50;15.80;;;9.90;99.90;;;;;;5061430;28;20225;-87
2020/12/02 05:35:56;;;;;;;22.77;15.98;;;10.00;99.90;;;;;;5073566;28;20194;-87
2020/12/02 05:39:13;;;;;;;19.65;15.80;;;10.00;99.90;;;;;;5038373;28;20175;-87
2020/12/02 05:41:39;;;;;;;19.70;15.20;;;10.00;99.90;;;;;;5037895;28;20167;-86
2020/12/02 05:44:14;;;;;;;21.48;15.48;;;10.00;99.90;;;;;;5021702;28;20179;-86
2020/12/02 05:46:46;;;;;;;23.15;15.60;;;9.80;99.90;;;;;;5038225;28;20163;-87
2020/12/02 05:49:33;;;;;;;23.58;15.73;;;9.80;99.90;;;;;;5055723;28;20159;-87
2020/12/02 05:51:59;;;;;;;22.70;15.65;;;10.00;99.90;;;;;;5055355;28;20176;-87
2020/12/02 05:54:26;;;;;;;19.63;15.68;;;10.10;99.90;;;;;;5005034;28;20313;-86
2020/12/02 05:56:52;;;;;;;24.42;15.90;;;10.30;99.90;;;;;;5037872;28;20183;-87
2020/12/02 05:59:18;;;;;;;20.45;14.82;;;10.50;99.90;;;;;;5055533;28;20175;-86
2020/12/02 06:01:45;;;;;;;25.35;17.00;;;10.50;99.90;;;;;;5047034;28;20254;-86
2020/12/02 06:04:13;;;;;;;18.88;15.10;;;10.60;99.90;;;;;;5037729;28;20229;-86
2020/12/02 06:06:39;;;;;;;25.38;16.15;;;10.70;99.90;;;;;;5037674;28;20167;-87
2020/12/02 06:09:04;;;;;;;21.52;15.30;;;10.60;99.90;;;;;;5041032;28;20209;-86
2020/12/02 06:11:34;;;;;;;21.20;16.08;;;10.20;99.90;;;;;;5024347;28;20197;-87
2020/12/02 06:14:08;;;;;;;21.15;14.73;;;10.00;99.90;;;;;;5060274;28;20219;-87
2020/12/02 06:16:45;;;;;;;18.92;14.10;;;9.90;99.90;;;;;;5037578;28;20182;-87
2020/12/02 06:19:16;;;;;;;18.58;15.23;;;9.80;99.90;;;;;;5037329;28;20177;-87
2020/12/02 06:21:57;;;;;;;19.77;14.75;;;9.80;99.90;;;;;;5037294;28;20211;-87
2020/12/02 06:24:44;;;;;;;21.40;16.38;;;10.00;99.90;;;;;;5055091;28;20186;-87
2020/12/02 06:27:16;;;;;;;17.70;14.55;;;10.00;99.90;;;;;;5055084;28;20622;-87
2020/12/02 06:29:50;;;;;;;23.35;15.10;;;9.80;99.90;;;;;;5038977;28;20233;-86
2020/12/02 06:32:20;;;;;;;21.33;14.85;;;9.70;99.90;;;;;;5077001;28;20175;-87
2020/12/02 06:34:48;;;;;;;15.88;13.77;;;9.70;99.90;;;;;;5075883;28;20182;-87
2020/12/02 06:37:23;;;;;;;21.35;14.80;;;9.70;99.90;;;;;;5095078;28;20170;-87
2020/12/02 06:39:57;;;;;;;20.27;15.02;;;9.80;99.90;;;;;;5076779;28;20172;-87
2020/12/02 06:42:34;;;;;;;20.95;15.13;;;10.00;99.90;;;;;;5077409;28;20174;-87
2020/12/02 06:45:09;;;;;;;21.23;14.20;;;10.10;99.90;;;;;;5095025;28;20241;-87
2020/12/02 06:47:48;;;;;;;22.23;16.40;;;10.30;99.90;;;;;;5095447;28;20197;-87
2020/12/02 06:50:20;;;;;;;21.42;15.15;;;10.30;99.90;;;;;;5095345;28;20185;-87
2020/12/02 06:52:45;;;;;;;24.13;15.85;;;10.40;99.90;;;;;;5094733;28;20190;-86
2020/12/02 06:55:16;;;;;;;19.48;15.73;;;10.30;99.90;;;;;;5059995;28;20181;-87
2020/12/02 06:57:42;;;;;;;20.48;15.60;;;10.10;99.90;;;;;;5076621;28;20209;-87
2020/12/02 07:00:16;;;;;;;21.08;16.00;;;9.80;99.90;;;;;;5095083;28;20158;-86
2020/12/02 07:02:47;;;;;;;20.17;15.93;;;9.90;99.90;;;;;;5036813;28;20258;-87
2020/12/02 07:05:43;;;;;;;24.50;16.38;;;9.90;99.90;;;;;;5036902;28;20229;-89
2020/12/02 07:08:14;;;;;;;22.52;15.65;;;9.80;99.90;;;;;;5056501;28;20232;-87
2020/12/02 07:10:41;;;;;;;21.13;15.30;;;9.90;99.90;;;;;;5051702;28;20174;-87
2020/12/02 07:13:14;;;;;;;27.15;16.15;;;10.10;99.90;;;;;;5063951;28;20651;-87
2020/12/02 07:15:40;;;;;;;25.17;16.00;;;10.10;99.90;;;;;;5056467;28;20174;-87
2020/12/02 07:18:16;;;;;;;18.63;14.75;;;10.00;99.90;;;;;;5039978;28;20216;-87
2020/12/02 07:20:45;;;;;;;21.25;15.68;;;10.00;99.90;;;;;;5072369;28;20160;-88
2020/12/02 07:23:13;;;;;;;18.35;15.63;;;10.00;99.90;;;;;;5054639;28;20258;-87
2020/12/02 07:25:38;;;;;;;28.48;15.57;;;10.00;99.90;;;;;;5065331;28;20182;-87
2020/12/02 07:28:17;;;;;;;17.48;14.38;;;10.20;99.90;;;;;;5056291;28;20175;-87
2020/12/02 07:30:45;;;;;;;21.00;15.95;;;10.30;99.90;;;;;;5056707;28;20174;-87
2020/12/02 07:33:22;;;;;;;20.17;15.27;;;10.40;99.90;;;;;;5039924;28;20222;-86
2020/12/02 07:36:23;;;;;;;21.23;15.38;;;9.80;99.90;;;;;;5056565;28;20170;-86
2020/12/02 07:38:59;;;;;;;18.88;15.50;;;9.30;99.90;;;;;;5109548;28;20177;-87
2020/12/02 07:41:25;;;;;;;18.55;14.68;;;9.20;99.90;;;;;;5086077;28;20169;-87
2020/12/02 07:43:51;;;;;;;21.77;16.05;;;9.50;99.90;;;;;;5060333;28;20622;-87
2020/12/02 07:46:21;;;;;;;17.67;15.85;;;9.80;99.90;;;;;;5079408;28;20166;-87
2020/12/02 07:48:53;;;;;;;20.88;15.60;;;9.90;99.90;;;;;;5063701;28;20200;-87
2020/12/02 07:51:27;;;;;;;20.52;16.25;;;9.70;99.90;;;;;;5062103;28;20179;-87
2020/12/02 07:54:25;;;;;;;20.88;15.48;;;9.80;99.90;;;;;;5060234;28;20193;-87
2020/12/02 07:56:52;;;;;;;16.63;14.45;;;10.00;99.90;;;;;;5027148;28;20186;-87
2020/12/02 07:59:24;;;;;;;19.92;15.13;;;10.20;99.90;;;;;;5023579;28;20199;-86
2020/12/02 08:01:59;;;;;;;20.98;15.70;;;10.30;99.90;;;;;;5057296;28;20629;-87
2020/12/02 08:04:52;;;;;;;24.00;15.73;;;10.30;99.90;;;;;;5057611;28;20206;-86
2020/12/02 08:07:19;;;;;;;18.20;14.77;;;10.30;99.90;;;;;;5055435;28;20183;-85
2020/12/02 08:09:50;;;;;;;22.67;15.82;;;10.40;99.90;;;;;;5023220;28;20214;-87
2020/12/02 08:12:20;;;;;;;18.27;14.90;;;10.30;99.90;;;;;;5049321;28;20190;-87
2020/12/02 08:14:49;;;;;;;22.45;15.82;;;9.90;99.90;;;;;;5059671;28;20624;-86
2020/12/02 08:17:22;;;;;;;21.48;15.73;;;9.90;99.90;;;;;;5059936;28;20179;-87
2020/12/02 08:19:51;;;;;;;21.55;16.02;;;10.10;99.90;;;;;;5078030;28;20154;-87
2020/12/02 08:22:47;;;;;;;26.05;17.20;;;10.30;99.90;;;;;;5044788;28;20587;-88
2020/12/02 08:25:47;;;;;;;24.02;16.23;;;10.40;99.90;;;;;;5039601;28;20593;-88
2020/12/02 08:28:19;;;;;;;22.08;16.33;;;10.50;99.90;;;;;;5031729;28;20256;-89
2020/12/02 08:30:44;;;;;;;28.67;18.25;;;10.40;99.90;;;;;;5057325;28;20160;-88
2020/12/02 08:33:13;;;;;;;29.55;18.00;;;10.30;99.90;;;;;;5006778;28;20219;-88
2020/12/02 08:35:50;;;;;;;28.73;18.58;;;10.40;99.90;;;;;;5039836;28;20171;-88
2020/12/02 08:38:29;;;;;;;36.10;18.60;;;10.40;99.90;;;;;;5040025;28;20249;-88
2020/12/02 08:40:57;;;;;;;25.77;17.65;;;10.60;99.90;;;;;;5070814;28;20539;-88
2020/12/02 08:43:36;;;;;;;25.85;17.77;;;10.60;99.90;;;;;;5079480;28;20235;-88
2020/12/02 08:46:08;;;;;;;31.60;17.45;;;10.60;99.90;;;;;;5079582;28;20169;-87
2020/12/02 08:48:39;;;;;;;32.20;18.15;;;10.80;99.90;;;;;;5080270;28;20170;-88
2020/12/02 08:51:14;;;;;;;26.05;17.75;;;10.80;99.90;;;;;;5079409;28;20242;-88
2020/12/02 08:53:41;;;;;;;25.02;17.40;;;10.80;99.90;;;;;;5079979;28;20190;-88
2020/12/02 08:56:31;;;;;;;28.27;18.00;;;10.80;99.90;;;;;;5097014;28;20228;-88
2020/12/02 08:58:58;;;;;;;30.98;18.85;;;10.70;99.90;;;;;;5097985;28;20598;-88
2020/12/02 09:01:23;;;;;;;31.05;18.83;;;10.70;99.90;;;;;;5080208;28;20174;-88
2020/12/02 09:03:49;;;;;;;32.38;19.13;;;10.80;99.90;;;;;;5045681;28;20170;-88
2020/12/02 09:06:17;;;;;;;30.40;19.05;;;10.80;99.90;;;;;;5062610;28;20170;-87
2020/12/02 09:08:44;;;;;;;30.95;18.38;;;10.90;99.90;;;;;;5062220;28;20261;-87
2020/12/02 09:11:10;;;;;;;28.63;17.75;;;10.90;99.90;;;;;;5069306;28;20170;-88
2020/12/02 09:13:36;;;;;;;33.33;18.00;;;10.80;99.90;;;;;;5066841;28;20177;-87
2020/12/02 09:16:02;;;;;;;25.30;18.08;;;10.90;99.90;;;;;;5066561;28;20185;-88
2020/12/02 09:18:27;;;;;;;26.98;18.90;;;11.00;99.90;;;;;;5099881;28;20158;-87
2020/12/02 09:20:53;;;;;;;25.98;18.73;;;11.00;99.90;;;;;;5079810;28;20577;-74
2020/12/02 09:23:19;;;;;;;29.00;18.98;;;10.60;99.90;;;;;;5041064;28;20228;-74
2020/12/02 09:25:44;;;;;;;27.17;19.17;;;10.50;99.90;;;;;;5057323;28;20651;-74
2020/12/02 09:28:10;;;;;;;26.70;19.17;;;10.70;99.90;;;;;;5057468;28;20537;-74
2020/12/02 09:30:35;;;;;;;31.13;19.23;;;10.80;99.90;;;;;;5059139;28;20183;-74
2020/12/02 09:33:01;;;;;;;33.95;20.02;;;10.90;99.90;;;;;;5095291;28;20287;-74
2020/12/02 09:35:27;;;;;;;28.25;19.10;;;11.00;99.90;;;;;;5076595;28;20170;-75
2020/12/02 09:37:53;;;;;;;28.05;18.60;;;11.20;99.90;;;;;;5075026;28;20174;-75
2020/12/02 09:40:19;;;;;;;34.70;19.20;;;11.30;99.90;;;;;;5067888;28;20261;-75
2020/12/02 09:43:02;;;;;;;32.25;19.75;;;11.40;99.90;;;;;;5095110;28;20197;-74
2020/12/02 09:45:49;;;;;;;26.25;18.77;;;11.50;99.90;;;;;;5099617;28;20158;-74
2020/12/02 09:48:19;;;;;;;25.17;18.20;;;11.50;99.90;;;;;;5117571;28;20150;-75
2020/12/02 09:50:45;;;;;;;25.65;18.65;;;11.60;99.90;;;;;;5078765;28;20173;-75
2020/12/02 09:53:24;;;;;;;32.08;19.35;;;11.70;99.90;;;;;;5075456;28;20244;-74
2020/12/02 09:55:50;;;;;;;27.90;18.45;;;11.80;99.90;;;;;;5075166;28;20178;-89
2020/12/02 09:58:17;;;;;;;25.02;18.00;;;11.80;99.90;;;;;;5076513;28;20194;-88
2020/12/02 10:00:42;;;;;;;27.23;19.33;;;11.70;99.90;;;;;;5052282;28;20170;-90
2020/12/02 10:03:20;;;;;;;28.23;18.60;;;11.70;99.90;;;;;;5081749;28;20185;-89
2020/12/02 10:06:22;;;;;;;27.80;19.33;;;11.70;99.90;;;;;;5065014;28;20270;-88
2020/12/02 10:08:57;;;;;;;32.35;19.90;;;11.60;99.90;;;;;;5058243;28;20627;-88
2020/12/02 10:11:38;;;;;;;28.25;18.90;;;11.60;99.90;;;;;;5058681;28;20607;-88
2020/12/02 10:14:25;;;;;;;41.10;20.92;;;11.70;99.90;;;;;;5059091;28;20190;-88
2020/12/02 10:17:09;;;;;;;30.48;19.77;;;11.60;99.90;;;;;;5058479;28;20218;-88
2020/12/02 10:20:00;;;;;;;30.30;19.65;;;11.60;99.90;;;;;;5075855;28;20170;-87
2020/12/02 10:22:34;;;;;;;31.52;20.08;;;11.70;99.90;;;;;;5076474;28;20167;-89
2020/12/02 10:25:22;;;;;;;25.88;18.63;;;11.80;99.90;;;;;;5076759;28;20201;-88
2020/12/02 10:27:51;;;;;;;30.15;20.27;;;11.70;99.90;;;;;;5058308;28;20194;-87
2020/12/02 10:30:21;;;;;;;35.38;21.88;;;11.80;99.90;;;;;;5057437;28;20216;-88
2020/12/02 10:33:28;;;;;;;27.02;19.83;;;11.90;99.90;;;;;;5075365;28;20639;-88
2020/12/02 10:35:57;;;;;;;26.80;18.50;;;11.90;99.90;;;;;;5052508;28;20258;-89
2020/12/02 10:38:47;;;;;;;34.95;19.10;;;11.90;99.90;;;;;;5037698;28;20168;-88
2020/12/02 10:41:32;;;;;;;28.88;18.42;;;11.90;99.90;;;;;;5076856;28;20174;-88
2020/12/02 10:44:16;;;;;;;29.13;20.35;;;12.00;99.90;;;;;;5076887;28;20672;-87
2020/12/02 10:47:13;;;;;;;30.35;19.95;;;12.00;99.90;;;;;;5095542;28;20155;-88
2020/12/02 10:49:39;;;;;;;33.17;21.98;;;12.00;99.90;;;;;;5047439;28;20178;-88
2020/12/02 10:52:07;;;;;;;31.27;21.15;;;12.00;99.90;;;;;;5043426;28;20220;-88
2020/12/02 10:54:35;;;;;;;37.38;21.27;;;12.10;99.90;;;;;;5043507;28;20224;-88
2020/12/02 10:57:08;;;;;;;41.22;21.05;;;12.10;99.90;;;;;;5068999;28;20179;-88
2020/12/02 10:59:34;;;;;;;30.30;20.90;;;12.10;99.90;;;;;;5056681;28;20180;-88
2020/12/02 11:02:00;;;;;;;36.78;21.88;;;12.10;99.90;;;;;;5056638;28;20620;-88
2020/12/02 11:04:25;;;;;;;30.80;21.35;;;12.10;99.90;;;;;;5056342;28;20189;-87
2020/12/02 11:07:39;;;;;;;32.85;21.13;;;12.10;99.90;;;;;;5039643;28;20206;-87
2020/12/02 11:10:53;;;;;;;29.15;19.83;;;12.10;99.90;;;;;;5034884;28;20217;-88
2020/12/02 11:13:30;;;;;;;31.10;20.90;;;12.00;99.90;;;;;;5039304;28;20593;-88
2020/12/02 11:16:03;;;;;;;30.02;20.35;;;11.90;99.90;;;;;;5054396;28;20238;-88
2020/12/02 11:18:28;;;;;;;30.23;20.92;;;11.90;99.90;;;;;;5054377;28;20238;-91
2020/12/02 11:21:02;;;;;;;30.35;19.83;;;11.90;99.90;;;;;;5065769;28;20204;-88
2020/12/02 11:23:31;;;;;;;35.72;22.25;;;12.00;99.90;;;;;;5056422;28;20166;-87
2020/12/02 11:26:15;;;;;;;26.88;19.55;;;12.00;99.90;;;;;;5074284;28;20612;-89
2020/12/02 11:28:42;;;;;;;27.13;19.70;;;12.00;99.90;;;;;;5056361;28;20192;-88
2020/12/02 11:31:28;;;;;;;31.67;19.75;;;12.00;99.90;;;;;;5074126;28;20191;-72
2020/12/02 11:33:57;;;;;;;31.52;19.23;;;11.90;99.90;;;;;;5054967;28;20602;-73
2020/12/02 11:36:45;;;;;;;29.42;19.45;;;11.90;99.90;;;;;;5086027;28;20178;-72
2020/12/02 11:39:52;;;;;;;29.25;18.63;;;11.90;99.90;;;;;;5057385;28;20174;-73
2020/12/02 11:42:21;;;;;;;25.90;19.52;;;11.90;99.90;;;;;;5039347;28;20178;-72
2020/12/02 11:45:15;;;;;;;31.92;19.20;;;11.90;99.90;;;;;;5072283;28;20246;-72
2020/12/02 11:47:49;;;;;;;32.22;19.65;;;12.00;99.90;;;;;;5072950;28;20166;-73
2020/12/02 11:50:22;;;;;;;38.05;24.17;;;12.00;99.90;;;;;;5054664;28;20162;-72
2020/12/02 11:52:52;;;;;;;29.27;20.85;;;12.00;99.90;;;;;;5079561;28;20549;-74
2020/12/02 11:55:19;;;;;;;32.33;20.67;;;11.90;99.90;;;;;;5093486;28;20238;-72
2020/12/02 11:57:52;;;;;;;33.47;22.17;;;11.80;99.90;;;;;;5057548;28;20651;-72
2020/12/02 12:00:18;;;;;;;32.72;21.35;;;11.80;99.90;;;;;;5092905;28;20213;-73
2020/12/02 12:02:49;;;;;;;28.83;19.15;;;11.80;99.90;;;;;;5074105;28;20209;-73
2020/12/02 12:05:39;;;;;;;32.45;20.20;;;11.80;99.90;;;;;;5073940;28;20720;-73
2020/12/02 12:08:20;;;;;;;31.17;19.48;;;11.90;99.90;;;;;;5093153;28;20203;-73
2020/12/02 12:11:00;;;;;;;30.67;21.30;;;11.90;99.90;;;;;;5096720;28;20155;-72
2020/12/02 12:13:47;;;;;;;29.05;20.17;;;12.00;99.90;;;;;;5092801;28;20281;-73
2020/12/02 12:16:40;;;;;;;27.35;20.67;;;12.10;99.90;;;;;;5055008;28;20623;-73
2020/12/02 12:19:27;;;;;;;33.42;22.05;;;12.00;99.90;;;;;;5054798;28;20186;-73
2020/12/02 12:22:19;;;;;;;35.00;21.17;;;12.00;99.90;;;;;;5054506;28;20171;-72
2020/12/02 12:24:47;;;;;;;30.13;20.45;;;11.90;99.90;;;;;;5052763;28;20349;-73
2020/12/02 12:27:16;;;;;;;41.67;21.30;;;11.90;99.90;;;;;;5052699;28;20179;-73
2020/12/02 12:29:42;;;;;;;29.38;20.63;;;11.90;99.90;;;;;;5060229;28;20175;-73
2020/12/02 12:32:17;;;;;;;29.48;20.88;;;11.90;99.90;;;;;;5045813;28;20177;-72
2020/12/02 12:34:58;;;;;;;33.00;20.00;;;11.80;99.90;;;;;;5095086;28;20185;-72
2020/12/02 12:37:23;;;;;;;32.90;21.00;;;11.80;99.90;;;;;;5077800;28;20261;-72
2020/12/02 12:39:56;;;;;;;28.90;20.38;;;11.80;99.90;;;;;;5078389;28;20284;-72
2020/12/02 12:42:26;;;;;;;31.00;21.45;;;11.60;99.90;;;;;;5089638;28;20181;-72
2020/12/02 12:44:55;;;;;;;28.67;20.65;;;11.50;99.90;;;;;;5076234;28;20177;-73
2020/12/02 12:47:32;;;;;;;28.52;21.15;;;11.40;99.90;;;;;;5076184;28;20174;-72
2020/12/02 12:49:58;;;;;;;36.70;22.63;;;11.30;99.90;;;;;;5076170;28;20143;-72
2020/12/02 12:52:27;;;;;;;35.67;23.00;;;11.20;99.90;;;;;;5082344;28;20219;-72
2020/12/02 12:54:53;;;;;;;32.65;21.73;;;11.20;99.90;;;;;;5096309;28;20170;-73
2020/12/02 12:57:21;;;;;;;31.50;22.33;;;11.00;99.90;;;;;;5078068;28;20261;-72
2020/12/02 12:59:47;;;;;;;37.20;22.23;;;10.90;99.90;;;;;;5095899;28;20568;-72